Terminal Aerodrome Forecast
Issued by NWS

Home | Current Version | Previous Version | Text Only | Print | Product List | Glossary Off
Versions: 1 2 3 4 5 6 7 8 9 10 11 12 13 14 15 16 17 18 19 20

000
FTUS43 KMPX 172339
TAFAXN
TAF
KAXN 172339Z 1800/1824 32009KT P6SM SKC
     FM180200 31005KT P6SM SKC
     FM180900 26005KT P6SM SCT050 BKN100
     FM182000 29005KT P6SM SCT100 BKN250=

USA.gov is the U.S. government's official web portal to all federal, state and local government web resources and services.